createdAt,value
2018-12-03T00:01:06.996Z,99523.75
2018-12-03T00:03:36.056Z,99524.05
2018-12-03T00:06:04.377Z,99530.71
2018-12-03T00:08:32.628Z,99521.28
2018-12-03T00:11:00.857Z,99517.46
2018-12-03T00:13:29.082Z,99522.23
2018-12-03T00:15:57.285Z,99515.48
2018-12-03T00:18:25.533Z,99516.13
2018-12-03T00:20:53.780Z,99516.25
2018-12-03T00:23:22.005Z,99527.44
2018-12-03T00:25:50.257Z,99522.96
2018-12-03T00:28:18.467Z,99514.44
2018-12-03T00:36:32.155Z,99524.38
2018-12-03T00:39:00.388Z,99523.30
2018-12-03T00:41:28.632Z,99524.38
2018-12-03T00:43:56.867Z,99527.31
2018-12-03T00:46:25.095Z,99532.20
2018-12-03T00:48:55.345Z,99545.96
2018-12-03T00:51:23.609Z,99551.40
2018-12-03T00:53:51.839Z,99555.75
2018-12-03T00:56:20.093Z,99550.13
2018-12-03T00:58:48.312Z,99552.80
2018-12-03T01:01:16.567Z,99552.70
2018-12-03T01:03:44.807Z,99550.19
2018-12-03T01:06:13.062Z,99564.69
2018-12-03T01:08:48.681Z,99568.91
2018-12-03T01:11:16.933Z,99570.85
2018-12-03T01:13:45.144Z,99568.16
2018-12-03T01:16:18.113Z,99569.18
2018-12-03T01:18:46.354Z,99571.75
2018-12-03T01:21:14.571Z,99577.89
2018-12-03T01:23:42.795Z,99577.46
2018-12-03T01:26:10.999Z,99582.48
2018-12-03T01:28:39.221Z,99595.10
2018-12-03T01:31:26.196Z,99602.73
2018-12-03T01:33:54.407Z,99594.92
2018-12-03T01:36:22.660Z,99595.17
2018-12-03T01:38:50.890Z,99598.45
2018-12-03T01:41:19.117Z,99606.08
2018-12-03T01:43:47.335Z,99610.70
2018-12-03T01:46:15.540Z,99611.77
2018-12-03T01:48:43.873Z,99629.45
2018-12-03T01:51:12.037Z,99615.39
2018-12-03T01:53:40.255Z,99612.91
2018-12-03T01:56:08.475Z,99603.34
2018-12-03T01:58:36.675Z,99607.34
2018-12-03T02:01:05.011Z,99596.41
2018-12-03T02:03:33.265Z,99596.17
2018-12-03T02:06:01.555Z,99590.44
2018-12-03T02:08:29.797Z,99582.77
2018-12-03T02:10:58.094Z,99584.95
2018-12-03T02:13:26.308Z,99575.57
2018-12-03T02:15:54.513Z,99577.93
2018-12-03T02:18:22.838Z,99564.99
2018-12-03T02:20:51.065Z,99560.73
2018-12-03T02:23:19.314Z,99558.01
2018-12-03T02:25:47.537Z,99563.80
2018-12-03T02:28:15.737Z,99562.76
2018-12-03T02:30:43.986Z,99566.98
2018-12-03T02:33:12.183Z,99554.94
2018-12-03T02:35:40.402Z,99544.06
2018-12-03T02:38:08.625Z,99537.31
2018-12-03T02:40:41.521Z,99539.80
2018-12-03T02:43:09.725Z,99532.89
2018-12-03T02:45:37.965Z,99524.80
2018-12-03T02:48:06.444Z,99515.39
2018-12-03T02:50:41.391Z,99528.15
2018-12-03T02:53:09.608Z,99540.60
2018-12-03T02:55:37.836Z,99530.53
2018-12-03T02:58:06.064Z,99523.52
2018-12-03T03:00:38.721Z,99520.04
2018-12-03T03:03:07.264Z,99511.25
2018-12-03T03:05:35.749Z,99522.08
2018-12-03T03:08:04.033Z,99518.65
2018-12-03T03:10:32.267Z,99535.72
2018-12-03T03:13:00.527Z,99533.69
2018-12-03T03:15:28.757Z,99531.79
2018-12-03T03:17:56.960Z,99537.27
2018-12-03T03:20:25.168Z,99536.11
2018-12-03T03:22:53.388Z,99550.41
2018-12-03T03:25:21.636Z,99557.01
2018-12-03T03:27:49.935Z,99552.33
2018-12-03T03:30:18.170Z,99552.00
2018-12-03T03:32:46.413Z,99549.73
2018-12-03T03:35:15.011Z,99560.06
2018-12-03T03:37:43.279Z,99569.29
2018-12-03T03:40:14.075Z,99574.23
2018-12-03T03:42:43.419Z,99572.67
2018-12-03T03:45:16.945Z,99564.05
2018-12-03T03:47:45.199Z,99564.52
2018-12-03T03:50:13.408Z,99551.66
2018-12-03T03:52:41.629Z,99575.09
2018-12-03T03:55:10.528Z,99564.67
2018-12-03T03:57:38.778Z,99557.27
2018-12-03T04:00:11.163Z,99547.03
2018-12-03T04:02:39.589Z,99547.73
2018-12-03T04:05:09.274Z,99543.70
2018-12-03T04:07:37.490Z,99530.42
2018-12-03T04:10:08.980Z,99524.56
2018-12-03T04:12:37.231Z,99530.81
2018-12-03T04:15:07.740Z,99548.01
2018-12-03T04:17:36.037Z,99553.66
2018-12-03T04:20:07.513Z,99548.25
2018-12-03T04:22:35.731Z,99537.56
2018-12-03T04:25:04.100Z,99560.30
2018-12-03T04:27:32.313Z,99565.36
2018-12-03T04:30:00.546Z,99554.84
2018-12-03T04:32:28.756Z,99550.34
2018-12-03T04:34:57.005Z,99559.79
2018-12-03T04:37:25.235Z,99540.25
2018-12-03T04:39:53.445Z,99534.19
2018-12-03T04:42:21.663Z,99551.83
2018-12-03T04:44:49.902Z,99574.83
2018-12-03T04:47:18.101Z,99573.08
2018-12-03T04:49:46.337Z,99574.56
2018-12-03T04:52:14.543Z,99575.38
2018-12-03T04:54:42.794Z,99578.52
2018-12-03T04:57:11.004Z,99589.48
2018-12-03T04:59:39.253Z,99583.23
2018-12-03T05:02:07.463Z,99586.98
2018-12-03T05:04:35.653Z,99591.32
2018-12-03T05:07:04.063Z,99589.52
2018-12-03T05:09:32.294Z,99582.14
2018-12-03T05:12:03.840Z,99584.02
2018-12-03T05:14:32.052Z,99578.58
2018-12-03T05:17:00.234Z,99582.16
2018-12-03T05:19:28.436Z,99577.05
2018-12-03T05:21:56.662Z,99565.97
2018-12-03T05:24:24.884Z,99574.48
2018-12-03T05:26:53.092Z,99573.02
2018-12-03T05:29:21.304Z,99581.78
2018-12-03T05:31:53.297Z,99579.69
2018-12-03T05:34:21.497Z,99595.76
2018-12-03T05:36:49.716Z,99595.31
2018-12-03T05:39:17.921Z,99590.87
2018-12-03T05:41:46.148Z,99595.70
2018-12-03T05:44:14.352Z,99589.50
2018-12-03T05:46:42.563Z,99580.13
2018-12-03T05:49:10.783Z,99587.79
2018-12-03T05:51:39.026Z,99588.95
2018-12-03T05:54:07.223Z,99589.00
2018-12-03T05:56:35.477Z,99588.80
2018-12-03T05:59:03.739Z,99584.45
2018-12-03T06:01:31.956Z,99577.28
2018-12-03T06:04:00.192Z,99591.06
2018-12-03T06:06:28.409Z,99600.48
2018-12-03T06:08:56.653Z,99604.56
2018-12-03T06:11:24.895Z,99598.05
2018-12-03T06:13:53.104Z,99599.85
2018-12-03T06:16:21.312Z,99600.63
2018-12-03T06:18:49.560Z,99601.66
2018-12-03T06:21:17.819Z,99598.80
2018-12-03T06:23:46.047Z,99612.34
2018-12-03T06:26:14.267Z,99606.11
2018-12-03T06:28:42.491Z,99599.16
2018-12-03T06:31:10.711Z,99599.33
2018-12-03T06:33:38.925Z,99608.00
2018-12-03T06:36:07.146Z,99605.19
2018-12-03T06:38:35.351Z,99584.56
2018-12-03T06:41:03.822Z,99584.89
2018-12-03T06:43:32.032Z,99606.28
2018-12-03T06:46:00.264Z,99604.56
2018-12-03T06:48:28.492Z,99610.52
2018-12-03T06:50:56.688Z,99628.25
2018-12-03T06:53:24.884Z,99612.95
2018-12-03T06:55:53.132Z,99613.36
2018-12-03T06:58:21.353Z,99602.17
2018-12-03T07:00:49.607Z,99611.53
2018-12-03T07:03:17.860Z,99608.34
2018-12-03T07:05:48.747Z,99617.20
2018-12-03T07:08:17.272Z,99617.40
2018-12-03T07:10:45.511Z,99621.99
2018-12-03T07:13:16.621Z,99616.07
2018-12-03T07:15:45.567Z,99620.16
2018-12-03T07:18:14.081Z,99612.43
2018-12-03T07:20:42.328Z,99612.58
2018-12-03T07:23:10.523Z,99624.73
2018-12-03T07:25:38.737Z,99625.02
2018-12-03T07:28:07.054Z,99620.69
2018-12-03T07:30:35.306Z,99625.09
2018-12-03T07:33:03.637Z,99627.86
2018-12-03T07:35:31.874Z,99626.47
2018-12-03T07:38:00.084Z,99633.95
2018-12-03T07:40:34.853Z,99636.39
2018-12-03T07:43:03.113Z,99638.83
2018-12-03T07:45:31.323Z,99642.30
2018-12-03T07:47:59.536Z,99646.14
2018-12-03T07:50:27.766Z,99648.18
2018-12-03T07:52:56.002Z,99650.91
2018-12-03T07:55:25.213Z,99644.20
2018-12-03T07:58:01.132Z,99649.50
2018-12-03T08:00:36.424Z,99647.14
2018-12-03T08:03:05.237Z,99640.80
2018-12-03T08:05:33.625Z,99637.11
2018-12-03T08:08:01.947Z,99640.66
2018-12-03T08:10:32.572Z,99638.55
2018-12-03T08:13:08.856Z,99639.24
2018-12-03T08:15:37.077Z,99645.09
2018-12-03T08:18:08.301Z,99645.78
2018-12-03T08:20:43.469Z,99657.14
2018-12-03T08:23:18.021Z,99660.38
2018-12-03T08:25:46.289Z,99665.31
2018-12-03T08:28:14.604Z,99663.57
2018-12-03T08:30:42.805Z,99658.36
2018-12-03T08:33:15.421Z,99653.77
2018-12-03T08:35:43.851Z,99655.40
2018-12-03T08:38:15.865Z,99653.42
2018-12-03T08:40:44.192Z,99644.03
2018-12-03T08:43:17.952Z,99641.09
2018-12-03T08:45:48.294Z,99643.65
2018-12-03T08:48:18.567Z,99654.98
2018-12-03T08:50:47.720Z,99657.25
2018-12-03T08:53:15.980Z,99650.88
2018-12-03T08:55:44.278Z,99661.83
2018-12-03T08:58:15.592Z,99645.67
2018-12-03T09:00:45.281Z,99656.26
2018-12-03T09:03:23.653Z,99656.28
2018-12-03T09:05:51.971Z,99638.03
2018-12-03T09:08:20.359Z,99650.72
2018-12-03T09:10:48.636Z,99644.27
2018-12-03T09:13:20.545Z,99656.03
2018-12-03T09:15:57.623Z,99657.64
2018-12-03T09:18:31.344Z,99649.58
2018-12-03T09:21:00.238Z,99658.00
2018-12-03T09:23:29.453Z,99667.03
2018-12-03T09:25:57.776Z,99689.36
2018-12-03T09:28:26.080Z,99672.44
2018-12-03T09:30:54.351Z,99690.53
2018-12-03T09:33:22.624Z,99688.81
2018-12-03T09:35:50.881Z,99685.16
2018-12-03T09:38:19.122Z,99678.87
2018-12-03T09:40:47.335Z,99679.03
2018-12-03T09:43:15.632Z,99678.34
2018-12-03T09:45:43.844Z,99670.28
2018-12-03T09:48:12.089Z,99672.88
2018-12-03T09:50:41.331Z,99671.91
2018-12-03T09:53:09.577Z,99672.13
2018-12-03T09:55:37.804Z,99663.70
2018-12-03T09:58:08.637Z,99666.06
2018-12-03T10:00:36.868Z,99662.23
2018-12-03T10:03:09.634Z,99653.50
2018-12-03T10:05:40.313Z,99654.59
2018-12-03T10:08:08.539Z,99662.00
2018-12-03T10:10:36.734Z,99653.09
2018-12-03T10:13:07.646Z,99650.80
2018-12-03T10:15:36.908Z,99648.73
2018-12-03T10:18:06.489Z,99646.07
2018-12-03T10:20:34.697Z,99646.78
2018-12-03T10:23:05.163Z,99649.95
2018-12-03T10:25:33.362Z,99658.01
2018-12-03T10:28:04.260Z,99654.36
2018-12-03T10:30:32.461Z,99650.77
2018-12-03T10:33:01.755Z,99648.48
2018-12-03T10:35:36.565Z,99640.34
2018-12-03T10:38:12.414Z,99639.79
2018-12-03T10:40:44.308Z,99636.02
2018-12-03T10:43:12.708Z,99634.72
2018-12-03T10:45:41.104Z,99622.55
2018-12-03T10:48:09.325Z,99625.44
2018-12-03T10:50:37.575Z,99629.00
2018-12-03T10:53:06.091Z,99627.13
2018-12-03T10:55:37.307Z,99633.48
2018-12-03T10:58:08.685Z,99632.18
2018-12-03T11:02:52.280Z,99635.64
2018-12-03T11:05:34.745Z,99623.80
2018-12-03T11:08:03.117Z,99622.59
2018-12-03T11:10:39.681Z,99614.61
2018-12-03T11:13:07.944Z,99616.15
2018-12-03T11:15:36.141Z,99603.04
2018-12-03T11:18:10.126Z,99600.13
2018-12-03T11:20:38.382Z,99589.30
2018-12-03T11:23:09.234Z,99588.17
2018-12-03T11:25:42.430Z,99591.13
2018-12-03T11:28:13.739Z,99587.86
2018-12-03T11:30:49.815Z,99590.25
2018-12-03T11:33:22.145Z,99582.80
2018-12-03T11:35:50.709Z,99578.59
2018-12-03T11:38:28.690Z,99579.59
2018-12-03T11:40:57.312Z,99575.15
2018-12-03T11:43:27.513Z,99573.36
2018-12-03T11:45:55.861Z,99557.03
2018-12-03T11:48:29.368Z,99556.11
2018-12-03T11:50:58.680Z,99551.14
2018-12-03T11:53:27.989Z,99546.56
2018-12-03T11:55:56.244Z,99539.88
2018-12-03T11:58:28.523Z,99547.23
2018-12-03T12:01:07.675Z,99541.26
2018-12-03T12:03:42.749Z,99537.59
2018-12-03T12:06:11.912Z,99546.23
2018-12-03T12:08:43.449Z,99531.62
2018-12-03T12:14:26.201Z,99536.15
2018-12-03T12:16:54.427Z,99535.84
2018-12-03T12:19:22.645Z,99525.87
2018-12-03T12:21:50.872Z,99533.53
2018-12-03T12:24:19.125Z,99527.35
2018-12-03T12:26:47.396Z,99520.22
2018-12-03T12:29:16.653Z,99526.74
2018-12-03T12:31:44.938Z,99517.61
2018-12-03T12:34:23.116Z,99515.61
2018-12-03T12:36:51.467Z,99508.74
2018-12-03T12:39:19.845Z,99506.77
2018-12-03T12:41:48.066Z,99501.55
2018-12-03T12:44:24.101Z,99503.95
2018-12-03T12:46:53.467Z,99499.33
2018-12-03T12:49:23.516Z,99497.31
2018-12-03T12:51:51.858Z,99501.93
2018-12-03T12:54:19.979Z,99505.87
2018-12-03T12:56:48.980Z,99502.83
2018-12-03T12:59:17.704Z,99497.93
2018-12-03T13:01:47.032Z,99503.36
2018-12-03T13:04:15.275Z,99504.34
2018-12-03T13:06:43.512Z,99519.23
2018-12-03T13:09:11.787Z,99505.30
2018-12-03T13:11:40.813Z,99511.83
2018-12-03T13:14:10.923Z,99498.03
2018-12-03T13:16:39.344Z,99482.39
2018-12-03T13:19:08.691Z,99490.22
2018-12-03T13:21:36.907Z,99487.20
2018-12-03T13:24:05.566Z,99484.23
2018-12-03T13:26:35.678Z,99486.52
2018-12-03T13:29:03.934Z,99483.02
2018-12-03T13:31:32.229Z,99481.89
2018-12-03T13:34:00.487Z,99489.38
2018-12-03T13:36:29.828Z,99491.13
2018-12-03T13:38:58.204Z,99485.25
2018-12-03T13:41:26.704Z,99481.62
2018-12-03T13:43:55.037Z,99481.52
2018-12-03T13:46:23.337Z,99481.13
2018-12-03T13:48:51.564Z,99482.49
2018-12-03T13:51:19.775Z,99489.01
2018-12-03T13:53:48.005Z,99480.31
2018-12-03T13:56:16.234Z,99470.30
2018-12-03T13:58:44.471Z,99468.04
2018-12-03T14:01:12.692Z,99464.39
2018-12-03T14:03:41.424Z,99458.28
2018-12-03T14:06:17.944Z,99467.62
2018-12-03T14:09:27.102Z,99475.20
2018-12-03T14:12:15.144Z,99471.56
2018-12-03T14:15:12.600Z,99466.90
2018-12-03T14:17:47.347Z,99466.66
2018-12-03T14:20:15.770Z,99464.55
2018-12-03T14:22:57.480Z,99464.36
2018-12-03T14:25:25.731Z,99463.36
2018-12-03T14:27:53.985Z,99455.27
2018-12-03T14:30:22.307Z,99457.88
2018-12-03T14:32:50.529Z,99450.22
2018-12-03T14:35:18.737Z,99448.98
2018-12-03T14:37:46.976Z,99448.71
2018-12-03T14:40:15.240Z,99447.34
2018-12-03T14:46:21.385Z,99447.41
2018-12-03T14:48:48.781Z,99457.08
2018-12-03T14:51:22.271Z,99463.16
2018-12-03T14:53:49.708Z,99461.29
2018-12-03T14:56:25.084Z,99465.23
2018-12-03T14:58:52.460Z,99451.77
2018-12-03T15:01:19.844Z,99463.07
2018-12-03T15:03:47.231Z,99462.92
2018-12-03T15:06:14.611Z,99469.89
2018-12-03T15:08:42.029Z,99469.19
2018-12-03T15:11:09.415Z,99471.61
2018-12-03T15:13:36.816Z,99470.75
2018-12-03T15:16:04.283Z,99472.37
2018-12-03T15:18:31.742Z,99469.95
2018-12-03T15:20:59.186Z,99472.53
2018-12-03T15:23:29.872Z,99471.48
2018-12-03T15:26:06.857Z,99459.88
2018-12-03T15:28:40.239Z,99459.44
2018-12-03T15:31:13.983Z,99458.55
2018-12-03T15:33:51.207Z,99458.20
2018-12-03T15:36:29.240Z,99454.26
2018-12-03T15:39:02.275Z,99456.27
2018-12-03T15:41:37.081Z,99453.50
2018-12-03T15:44:08.286Z,99459.98
2018-12-03T15:46:42.246Z,99461.69
2018-12-03T15:54:56.832Z,99465.69
2018-12-03T15:57:29.003Z,99458.83
2018-12-03T15:59:58.218Z,99447.36
2018-12-03T16:02:27.041Z,99447.14
2018-12-03T16:04:57.908Z,99444.38
2018-12-03T16:07:27.108Z,99453.05
2018-12-03T16:09:57.269Z,99455.84
2018-12-03T16:12:30.967Z,99446.56
2018-12-03T16:15:05.697Z,99456.26
2018-12-03T16:17:39.309Z,99449.17
2018-12-03T16:20:16.387Z,99451.84
2018-12-03T16:22:56.909Z,99453.70
2018-12-03T16:25:26.544Z,99447.84
2018-12-03T16:27:56.959Z,99442.44
2018-12-03T16:30:30.729Z,99451.00
2018-12-03T16:33:09.368Z,99464.92
2018-12-03T16:35:38.577Z,99476.20
2018-12-03T16:38:09.399Z,99485.95
2018-12-03T16:40:39.914Z,99484.30
2018-12-03T16:43:13.800Z,99496.13
2018-12-03T16:45:47.490Z,99495.66
2018-12-03T16:48:20.744Z,99500.95
2018-12-03T16:50:54.076Z,99494.51
2018-12-03T16:53:27.998Z,99502.80
2018-12-03T16:56:01.960Z,99507.70
2018-12-03T16:58:37.047Z,99496.31
2018-12-03T17:01:11.030Z,99496.67
2018-12-03T17:03:44.935Z,99497.73
2018-12-03T17:06:18.705Z,99484.03
2018-12-03T17:08:52.060Z,99481.97
2018-12-03T17:11:25.978Z,99485.78
2018-12-03T17:13:59.077Z,99480.84
2018-12-03T17:16:30.258Z,99472.56
2018-12-03T17:19:04.309Z,99478.08
2018-12-03T17:21:38.533Z,99479.36
2018-12-03T17:24:12.305Z,99481.11
2018-12-03T17:26:47.510Z,99482.50
2018-12-03T17:29:21.560Z,99468.32
2018-12-03T17:31:59.821Z,99477.92
2018-12-03T17:34:35.902Z,99482.35
2018-12-03T17:40:17.915Z,99490.30
2018-12-03T17:42:47.105Z,99495.09
2018-12-03T17:45:18.561Z,99483.81
2018-12-03T17:47:47.301Z,99484.34
2018-12-03T17:50:21.324Z,99497.44
2018-12-03T17:52:50.325Z,99491.90
2018-12-03T17:55:24.222Z,99500.02
2018-12-03T17:57:59.006Z,99499.95
2018-12-03T18:00:32.162Z,99502.72
2018-12-03T18:03:06.336Z,99504.02
2018-12-03T18:05:58.519Z,99504.97
2018-12-03T18:08:32.443Z,99512.69
2018-12-03T18:11:05.742Z,99502.66
2018-12-03T18:13:38.809Z,99502.56
2018-12-03T18:16:24.341Z,99506.30
2018-12-03T18:18:57.710Z,99497.35
2018-12-03T18:21:34.081Z,99496.41
2018-12-03T18:24:05.107Z,99508.55
2018-12-03T18:26:34.232Z,99503.83
2018-12-03T18:29:08.260Z,99502.65
2018-12-03T18:31:42.216Z,99514.15
2018-12-03T18:34:13.313Z,99522.03
2018-12-03T18:36:42.297Z,99531.41
2018-12-03T18:39:16.199Z,99528.83
2018-12-03T18:41:50.233Z,99523.18
2018-12-03T18:44:23.887Z,99535.00
2018-12-03T18:46:58.839Z,99536.05
2018-12-03T18:49:32.762Z,99545.22
2018-12-03T18:52:06.827Z,99537.84
2018-12-03T18:54:38.022Z,99529.55
2018-12-03T18:57:12.088Z,99541.34
2018-12-03T18:59:46.053Z,99542.38
2018-12-03T19:02:20.036Z,99543.41
2018-12-03T19:04:51.275Z,99559.06
2018-12-03T19:07:20.191Z,99549.66
2018-12-03T19:09:54.045Z,99552.68
2018-12-03T19:12:28.099Z,99556.06
2018-12-03T19:15:02.037Z,99558.98
2018-12-03T19:17:32.978Z,99564.03
2018-12-03T19:20:07.254Z,99575.58
2018-12-03T19:22:41.135Z,99569.05
2018-12-03T19:25:14.905Z,99568.48
2018-12-03T19:27:57.484Z,99576.98
2018-12-03T19:30:31.087Z,99576.95
2018-12-03T19:33:01.445Z,99588.20
2018-12-03T19:35:35.323Z,99587.34
2018-12-03T19:38:16.202Z,99592.56
2018-12-03T19:40:45.192Z,99592.70
2018-12-03T19:43:18.965Z,99597.81
2018-12-03T19:46:00.269Z,99592.33
2018-12-03T19:48:33.977Z,99591.19
2018-12-03T19:51:13.751Z,99590.84
2018-12-03T19:53:44.412Z,99589.63
2018-12-03T19:56:13.508Z,99599.37
2018-12-03T19:58:55.224Z,99600.54
2018-12-03T20:01:35.187Z,99599.20
2018-12-03T20:04:17.473Z,99603.33
2018-12-03T20:06:51.424Z,99613.69
2018-12-03T20:09:30.399Z,99617.02
2018-12-03T20:12:04.009Z,99623.87
2018-12-03T20:14:37.812Z,99627.35
2018-12-03T20:17:08.256Z,99634.05
2018-12-03T20:19:41.746Z,99630.30
2018-12-03T20:22:10.341Z,99640.89
2018-12-03T20:24:43.439Z,99644.56
2018-12-03T20:27:17.308Z,99647.28
2018-12-03T20:29:52.343Z,99646.27
2018-12-03T20:32:25.442Z,99650.16
2018-12-03T20:34:57.709Z,99666.30
2018-12-03T20:37:31.568Z,99674.81
2018-12-03T20:40:09.683Z,99673.23
2018-12-03T20:42:40.438Z,99677.42
2018-12-03T20:45:13.377Z,99686.45
2018-12-03T20:47:44.992Z,99690.36
2018-12-03T20:50:19.036Z,99694.66
2018-12-03T20:52:49.455Z,99694.55
2018-12-03T20:55:20.618Z,99696.13
2018-12-03T20:57:50.636Z,99706.30
2018-12-03T21:00:24.537Z,99708.41
2018-12-03T21:02:54.929Z,99711.50
2018-12-03T21:05:32.535Z,99718.35
2018-12-03T21:08:01.961Z,99720.38
2018-12-03T21:10:34.852Z,99719.10
2018-12-03T21:13:08.824Z,99730.94
2018-12-03T21:15:41.035Z,99738.11
2018-12-03T21:18:18.993Z,99746.76
2018-12-03T21:20:52.250Z,99753.50
2018-12-03T21:23:26.141Z,99745.79
2018-12-03T21:25:59.245Z,99747.49
2018-12-03T21:28:33.128Z,99757.69
2018-12-03T21:31:07.532Z,99763.83
2018-12-03T21:33:41.020Z,99761.09
2018-12-03T21:36:14.411Z,99762.59
2018-12-03T21:38:44.764Z,99771.21
2018-12-03T21:41:18.429Z,99778.23
2018-12-03T21:43:53.383Z,99770.77
2018-12-03T21:46:27.365Z,99784.87
2018-12-03T21:49:01.342Z,99798.96
2018-12-03T21:51:31.813Z,99808.88
2018-12-03T21:54:05.385Z,99804.48
2018-12-03T21:56:38.570Z,99802.50
2018-12-03T21:59:08.985Z,99805.78
2018-12-03T22:01:40.016Z,99808.60
2018-12-03T22:04:10.505Z,99800.48
2018-12-03T22:06:41.730Z,99809.32
2018-12-03T22:09:12.055Z,99817.25
2018-12-03T22:11:46.927Z,99817.64
2018-12-03T22:14:17.540Z,99813.38
2018-12-03T22:16:48.757Z,99815.97
2018-12-03T22:19:20.012Z,99824.00
2018-12-03T22:21:54.768Z,99825.50
2018-12-03T22:24:26.080Z,99833.37
2018-12-03T22:26:59.153Z,99835.86
2018-12-03T22:29:33.179Z,99842.02
2018-12-03T22:32:07.280Z,99849.01
2018-12-03T22:34:37.595Z,99858.63
2018-12-03T22:37:10.888Z,99869.02
2018-12-03T22:39:46.331Z,99876.47
2018-12-03T22:42:17.381Z,99876.42
2018-12-03T22:44:48.248Z,99889.85
2018-12-03T22:47:17.877Z,99894.20
2018-12-03T22:49:51.882Z,99891.59
2018-12-03T22:54:52.122Z,99892.15
2018-12-03T22:57:25.418Z,99891.23
2018-12-03T22:59:59.292Z,99890.92
2018-12-03T23:02:39.602Z,99895.47
2018-12-03T23:05:10.115Z,99907.59
2018-12-03T23:07:43.364Z,99913.24
2018-12-03T23:10:12.604Z,99919.25
2018-12-03T23:12:50.033Z,99912.81
2018-12-03T23:15:36.293Z,99924.26
2018-12-03T23:18:05.529Z,99920.44
2018-12-03T23:20:38.901Z,99931.75
2018-12-03T23:23:10.482Z,99937.66
2018-12-03T23:28:44.382Z,99957.08
2018-12-03T23:31:15.436Z,99962.66
2018-12-03T23:33:49.226Z,99962.23
2018-12-03T23:36:20.380Z,99968.67
2018-12-03T23:38:54.069Z,99964.77
2018-12-03T23:41:25.283Z,99969.58
2018-12-03T23:44:06.935Z,99973.00
2018-12-03T23:46:42.859Z,99987.05
2018-12-03T23:49:14.093Z,99994.86
2018-12-03T23:51:47.269Z,100003.34
2018-12-03T23:56:52.843Z,100002.66
2018-12-03T23:59:27.897Z,100021.17
